sensor_id;sensor_type;location;lat;lon;timestamp;P1;durP1;ratioP1;P2;durP2;ratioP2
2434;SDS011;1228;51.022;6.764;2023-05-29T00:01:33;9.17;;;6.70;;
2434;SDS011;1228;51.022;6.764;2023-05-29T00:04:01;6.90;;;6.30;;
2434;SDS011;1228;51.022;6.764;2023-05-29T00:06:26;7.03;;;6.43;;
2434;SDS011;1228;51.022;6.764;2023-05-29T00:08:52;6.53;;;5.97;;
2434;SDS011;1228;51.022;6.764;2023-05-29T00:11:18;7.03;;;5.90;;
2434;SDS011;1228;51.022;6.764;2023-05-29T00:13:43;6.33;;;5.60;;
2434;SDS011;1228;51.022;6.764;2023-05-29T00:16:09;7.70;;;6.57;;
2434;SDS011;1228;51.022;6.764;2023-05-29T00:18:35;6.87;;;6.37;;
2434;SDS011;1228;51.022;6.764;2023-05-29T00:21:01;6.50;;;6.00;;
2434;SDS011;1228;51.022;6.764;2023-05-29T00:23:27;6.20;;;5.63;;
2434;SDS011;1228;51.022;6.764;2023-05-29T00:25:52;7.67;;;6.47;;
2434;SDS011;1228;51.022;6.764;2023-05-29T00:28:18;6.50;;;6.00;;
2434;SDS011;1228;51.022;6.764;2023-05-29T00:30:44;6.30;;;5.70;;
2434;SDS011;1228;51.022;6.764;2023-05-29T00:33:10;6.17;;;5.13;;
2434;SDS011;1228;51.022;6.764;2023-05-29T00:35:36;6.27;;;5.63;;
2434;SDS011;1228;51.022;6.764;2023-05-29T00:38:01;6.43;;;5.83;;
2434;SDS011;1228;51.022;6.764;2023-05-29T00:40:27;6.80;;;6.17;;
2434;SDS011;1228;51.022;6.764;2023-05-29T00:42:52;6.73;;;5.87;;
2434;SDS011;1228;51.022;6.764;2023-05-29T00:45:18;7.90;;;6.00;;
2434;SDS011;1228;51.022;6.764;2023-05-29T00:47:44;6.30;;;5.90;;
2434;SDS011;1228;51.022;6.764;2023-05-29T00:50:10;6.83;;;6.13;;
2434;SDS011;1228;51.022;6.764;2023-05-29T00:52:38;6.87;;;6.27;;
2434;SDS011;1228;51.022;6.764;2023-05-29T00:55:05;6.10;;;5.70;;
2434;SDS011;1228;51.022;6.764;2023-05-29T00:57:33;6.23;;;5.83;;
2434;SDS011;1228;51.022;6.764;2023-05-29T00:59:59;5.90;;;5.40;;
2434;SDS011;1228;51.022;6.764;2023-05-29T01:02:25;6.10;;;5.53;;
2434;SDS011;1228;51.022;6.764;2023-05-29T01:04:54;7.20;;;6.53;;
2434;SDS011;1228;51.022;6.764;2023-05-29T01:07:21;7.20;;;6.50;;
2434;SDS011;1228;51.022;6.764;2023-05-29T01:09:47;7.27;;;6.77;;
2434;SDS011;1228;51.022;6.764;2023-05-29T01:21:17;5.17;;;4.87;;
2434;SDS011;1228;51.022;6.764;2023-05-29T01:29:35;6.23;;;5.73;;
2434;SDS011;1228;51.022;6.764;2023-05-29T01:32:04;8.13;;;5.73;;
2434;SDS011;1228;51.022;6.764;2023-05-29T01:34:30;6.10;;;5.60;;
2434;SDS011;1228;51.022;6.764;2023-05-29T01:36:55;6.23;;;5.60;;
2434;SDS011;1228;51.022;6.764;2023-05-29T01:39:21;6.53;;;5.80;;
2434;SDS011;1228;51.022;6.764;2023-05-29T01:41:47;6.40;;;5.80;;
2434;SDS011;1228;51.022;6.764;2023-05-29T01:44:13;5.90;;;5.40;;
2434;SDS011;1228;51.022;6.764;2023-05-29T01:46:40;6.33;;;5.83;;
2434;SDS011;1228;51.022;6.764;2023-05-29T01:49:06;6.93;;;5.57;;
2434;SDS011;1228;51.022;6.764;2023-05-29T01:51:33;6.47;;;6.00;;
2434;SDS011;1228;51.022;6.764;2023-05-29T01:53:58;6.70;;;6.20;;
2434;SDS011;1228;51.022;6.764;2023-05-29T01:56:25;7.13;;;6.53;;
2434;SDS011;1228;51.022;6.764;2023-05-29T01:58:52;7.23;;;6.53;;
2434;SDS011;1228;51.022;6.764;2023-05-29T02:01:20;7.97;;;6.17;;
2434;SDS011;1228;51.022;6.764;2023-05-29T02:03:46;8.37;;;6.10;;
2434;SDS011;1228;51.022;6.764;2023-05-29T02:06:12;6.20;;;5.63;;
2434;SDS011;1228;51.022;6.764;2023-05-29T02:08:37;6.77;;;6.27;;
2434;SDS011;1228;51.022;6.764;2023-05-29T02:11:03;6.90;;;6.17;;
2434;SDS011;1228;51.022;6.764;2023-05-29T02:13:29;6.47;;;5.97;;
2434;SDS011;1228;51.022;6.764;2023-05-29T02:15:54;9.33;;;6.53;;
2434;SDS011;1228;51.022;6.764;2023-05-29T02:18:20;7.13;;;6.43;;
2434;SDS011;1228;51.022;6.764;2023-05-29T02:20:46;6.87;;;6.37;;
2434;SDS011;1228;51.022;6.764;2023-05-29T02:23:11;6.67;;;6.17;;
2434;SDS011;1228;51.022;6.764;2023-05-29T02:25:37;8.23;;;5.90;;
2434;SDS011;1228;51.022;6.764;2023-05-29T02:28:04;7.90;;;7.03;;
2434;SDS011;1228;51.022;6.764;2023-05-29T02:30:30;7.00;;;6.40;;
2434;SDS011;1228;51.022;6.764;2023-05-29T02:32:55;6.20;;;5.80;;
2434;SDS011;1228;51.022;6.764;2023-05-29T02:35:21;9.10;;;6.43;;
2434;SDS011;1228;51.022;6.764;2023-05-29T02:37:51;7.17;;;6.57;;
2434;SDS011;1228;51.022;6.764;2023-05-29T02:40:17;9.27;;;6.40;;
2434;SDS011;1228;51.022;6.764;2023-05-29T02:42:43;7.13;;;6.33;;
2434;SDS011;1228;51.022;6.764;2023-05-29T02:45:10;7.33;;;5.80;;
2434;SDS011;1228;51.022;6.764;2023-05-29T02:47:35;7.57;;;6.83;;
2434;SDS011;1228;51.022;6.764;2023-05-29T02:50:02;7.60;;;6.77;;
2434;SDS011;1228;51.022;6.764;2023-05-29T02:52:28;8.27;;;5.80;;
2434;SDS011;1228;51.022;6.764;2023-05-29T02:54:55;8.83;;;6.10;;
2434;SDS011;1228;51.022;6.764;2023-05-29T02:57:21;7.17;;;5.80;;
2434;SDS011;1228;51.022;6.764;2023-05-29T02:59:47;7.07;;;6.23;;
2434;SDS011;1228;51.022;6.764;2023-05-29T03:02:12;7.20;;;6.50;;
2434;SDS011;1228;51.022;6.764;2023-05-29T03:04:38;7.87;;;5.63;;
2434;SDS011;1228;51.022;6.764;2023-05-29T03:07:05;9.63;;;6.73;;
2434;SDS011;1228;51.022;6.764;2023-05-29T03:09:31;6.80;;;5.80;;
2434;SDS011;1228;51.022;6.764;2023-05-29T03:11:57;7.93;;;5.90;;
2434;SDS011;1228;51.022;6.764;2023-05-29T03:14:23;9.37;;;6.50;;
2434;SDS011;1228;51.022;6.764;2023-05-29T03:16:48;9.87;;;6.03;;
2434;SDS011;1228;51.022;6.764;2023-05-29T03:19:15;6.77;;;5.87;;
2434;SDS011;1228;51.022;6.764;2023-05-29T03:21:41;7.33;;;6.30;;
2434;SDS011;1228;51.022;6.764;2023-05-29T03:24:06;7.77;;;6.20;;
2434;SDS011;1228;51.022;6.764;2023-05-29T03:26:32;6.67;;;5.90;;
2434;SDS011;1228;51.022;6.764;2023-05-29T03:28:58;7.20;;;5.90;;
2434;SDS011;1228;51.022;6.764;2023-05-29T03:31:23;6.80;;;5.83;;
2434;SDS011;1228;51.022;6.764;2023-05-29T03:33:49;7.47;;;5.70;;
2434;SDS011;1228;51.022;6.764;2023-05-29T03:36:15;6.70;;;5.80;;
2434;SDS011;1228;51.022;6.764;2023-05-29T03:38:43;9.80;;;6.63;;
2434;SDS011;1228;51.022;6.764;2023-05-29T03:41:09;7.83;;;6.27;;
2434;SDS011;1228;51.022;6.764;2023-05-29T03:43:35;8.63;;;6.30;;
2434;SDS011;1228;51.022;6.764;2023-05-29T03:46:01;7.00;;;6.30;;
2434;SDS011;1228;51.022;6.764;2023-05-29T03:48:27;8.73;;;6.17;;
2434;SDS011;1228;51.022;6.764;2023-05-29T03:50:53;6.40;;;5.90;;
2434;SDS011;1228;51.022;6.764;2023-05-29T03:53:18;6.57;;;5.97;;
2434;SDS011;1228;51.022;6.764;2023-05-29T03:55:44;10.67;;;7.00;;
2434;SDS011;1228;51.022;6.764;2023-05-29T03:58:09;10.80;;;6.30;;
2434;SDS011;1228;51.022;6.764;2023-05-29T04:00:37;6.80;;;5.83;;
2434;SDS011;1228;51.022;6.764;2023-05-29T04:03:04;11.33;;;6.70;;
2434;SDS011;1228;51.022;6.764;2023-05-29T04:05:29;9.83;;;6.20;;
2434;SDS011;1228;51.022;6.764;2023-05-29T04:07:55;13.13;;;6.80;;
2434;SDS011;1228;51.022;6.764;2023-05-29T04:10:21;8.07;;;6.80;;
2434;SDS011;1228;51.022;6.764;2023-05-29T04:12:47;8.37;;;7.37;;
2434;SDS011;1228;51.022;6.764;2023-05-29T04:15:12;8.07;;;6.10;;
2434;SDS011;1228;51.022;6.764;2023-05-29T04:17:38;7.80;;;5.93;;
2434;SDS011;1228;51.022;6.764;2023-05-29T04:20:04;8.80;;;5.57;;
2434;SDS011;1228;51.022;6.764;2023-05-29T04:22:34;7.80;;;5.93;;
2434;SDS011;1228;51.022;6.764;2023-05-29T04:25:01;6.33;;;5.53;;
2434;SDS011;1228;51.022;6.764;2023-05-29T04:27:28;11.63;;;6.93;;
2434;SDS011;1228;51.022;6.764;2023-05-29T04:29:55;6.97;;;6.47;;
2434;SDS011;1228;51.022;6.764;2023-05-29T04:32:20;11.00;;;6.50;;
2434;SDS011;1228;51.022;6.764;2023-05-29T04:34:46;13.63;;;7.10;;
2434;SDS011;1228;51.022;6.764;2023-05-29T04:37:12;9.77;;;5.97;;
2434;SDS011;1228;51.022;6.764;2023-05-29T04:39:38;8.40;;;7.53;;
2434;SDS011;1228;51.022;6.764;2023-05-29T04:42:04;8.83;;;5.63;;
2434;SDS011;1228;51.022;6.764;2023-05-29T04:44:30;7.27;;;5.40;;
2434;SDS011;1228;51.022;6.764;2023-05-29T04:46:56;8.93;;;6.57;;
2434;SDS011;1228;51.022;6.764;2023-05-29T04:49:22;6.47;;;5.87;;
2434;SDS011;1228;51.022;6.764;2023-05-29T04:51:47;13.07;;;6.60;;
2434;SDS011;1228;51.022;6.764;2023-05-29T04:54:13;6.00;;;5.40;;
2434;SDS011;1228;51.022;6.764;2023-05-29T04:56:39;9.67;;;6.17;;
2434;SDS011;1228;51.022;6.764;2023-05-29T04:59:05;7.13;;;6.27;;
2434;SDS011;1228;51.022;6.764;2023-05-29T05:01:31;6.17;;;5.57;;
2434;SDS011;1228;51.022;6.764;2023-05-29T05:03:59;11.17;;;5.73;;
2434;SDS011;1228;51.022;6.764;2023-05-29T05:06:25;9.60;;;5.67;;
2434;SDS011;1228;51.022;6.764;2023-05-29T05:08:51;8.57;;;5.27;;
2434;SDS011;1228;51.022;6.764;2023-05-29T05:11:21;10.23;;;5.73;;
2434;SDS011;1228;51.022;6.764;2023-05-29T05:13:48;9.10;;;5.93;;
2434;SDS011;1228;51.022;6.764;2023-05-29T05:16:14;8.93;;;5.80;;
2434;SDS011;1228;51.022;6.764;2023-05-29T05:18:39;11.53;;;6.00;;
2434;SDS011;1228;51.022;6.764;2023-05-29T05:21:05;6.33;;;5.33;;
2434;SDS011;1228;51.022;6.764;2023-05-29T05:23:31;6.60;;;5.40;;
2434;SDS011;1228;51.022;6.764;2023-05-29T05:25:57;8.70;;;6.77;;
2434;SDS011;1228;51.022;6.764;2023-05-29T05:28:22;11.33;;;6.37;;
2434;SDS011;1228;51.022;6.764;2023-05-29T05:30:48;13.47;;;6.73;;
2434;SDS011;1228;51.022;6.764;2023-05-29T05:33:14;9.03;;;7.77;;
2434;SDS011;1228;51.022;6.764;2023-05-29T05:35:39;5.57;;;5.13;;
2434;SDS011;1228;51.022;6.764;2023-05-29T05:38:05;7.23;;;5.57;;
2434;SDS011;1228;51.022;6.764;2023-05-29T05:40:31;9.73;;;5.50;;
2434;SDS011;1228;51.022;6.764;2023-05-29T05:42:57;9.67;;;5.93;;
2434;SDS011;1228;51.022;6.764;2023-05-29T05:45:23;7.87;;;5.73;;
2434;SDS011;1228;51.022;6.764;2023-05-29T05:47:49;8.87;;;5.70;;
2434;SDS011;1228;51.022;6.764;2023-05-29T05:50:15;10.67;;;7.00;;
2434;SDS011;1228;51.022;6.764;2023-05-29T05:52:40;9.80;;;5.50;;
2434;SDS011;1228;51.022;6.764;2023-05-29T05:55:06;7.83;;;5.13;;
2434;SDS011;1228;51.022;6.764;2023-05-29T05:57:32;9.77;;;4.73;;
2434;SDS011;1228;51.022;6.764;2023-05-29T05:59:59;7.83;;;5.30;;
2434;SDS011;1228;51.022;6.764;2023-05-29T06:02:25;8.77;;;5.23;;
2434;SDS011;1228;51.022;6.764;2023-05-29T06:04:51;9.03;;;5.73;;
2434;SDS011;1228;51.022;6.764;2023-05-29T06:07:17;8.47;;;4.97;;
2434;SDS011;1228;51.022;6.764;2023-05-29T06:09:43;5.67;;;4.57;;
2434;SDS011;1228;51.022;6.764;2023-05-29T06:12:08;11.17;;;4.80;;
2434;SDS011;1228;51.022;6.764;2023-05-29T06:14:34;7.77;;;4.23;;
2434;SDS011;1228;51.022;6.764;2023-05-29T06:17:00;8.23;;;4.67;;
2434;SDS011;1228;51.022;6.764;2023-05-29T06:19:25;6.43;;;4.68;;
2434;SDS011;1228;51.022;6.764;2023-05-29T06:21:51;7.43;;;5.03;;
2434;SDS011;1228;51.022;6.764;2023-05-29T06:24:17;6.75;;;4.70;;
2434;SDS011;1228;51.022;6.764;2023-05-29T06:26:43;8.32;;;5.72;;
2434;SDS011;1228;51.022;6.764;2023-05-29T06:29:08;7.85;;;5.03;;
2434;SDS011;1228;51.022;6.764;2023-05-29T06:31:34;11.52;;;4.70;;
2434;SDS011;1228;51.022;6.764;2023-05-29T06:34:00;10.10;;;5.22;;
2434;SDS011;1228;51.022;6.764;2023-05-29T06:36:25;9.90;;;5.40;;
2434;SDS011;1228;51.022;6.764;2023-05-29T06:38:51;5.90;;;4.65;;
2434;SDS011;1228;51.022;6.764;2023-05-29T06:41:17;8.75;;;4.43;;
2434;SDS011;1228;51.022;6.764;2023-05-29T06:43:42;9.70;;;4.82;;
2434;SDS011;1228;51.022;6.764;2023-05-29T06:46:08;6.60;;;5.05;;
2434;SDS011;1228;51.022;6.764;2023-05-29T06:48:35;7.15;;;4.75;;
2434;SDS011;1228;51.022;6.764;2023-05-29T06:51:01;7.63;;;5.03;;
2434;SDS011;1228;51.022;6.764;2023-05-29T06:53:28;8.38;;;4.97;;
2434;SDS011;1228;51.022;6.764;2023-05-29T06:55:54;7.07;;;4.90;;
2434;SDS011;1228;51.022;6.764;2023-05-29T06:58:19;7.97;;;6.65;;
2434;SDS011;1228;51.022;6.764;2023-05-29T07:00:45;7.43;;;6.30;;
2434;SDS011;1228;51.022;6.764;2023-05-29T07:03:10;8.35;;;4.82;;
2434;SDS011;1228;51.022;6.764;2023-05-29T07:05:36;12.02;;;4.82;;
2434;SDS011;1228;51.022;6.764;2023-05-29T07:08:01;10.20;;;5.05;;
2434;SDS011;1228;51.022;6.764;2023-05-29T07:10:27;8.20;;;5.18;;
2434;SDS011;1228;51.022;6.764;2023-05-29T07:12:53;7.85;;;4.43;;
2434;SDS011;1228;51.022;6.764;2023-05-29T07:15:18;10.18;;;4.93;;
2434;SDS011;1228;51.022;6.764;2023-05-29T07:17:44;6.28;;;4.45;;
2434;SDS011;1228;51.022;6.764;2023-05-29T07:20:10;9.40;;;4.85;;
2434;SDS011;1228;51.022;6.764;2023-05-29T07:22:36;7.15;;;5.07;;
2434;SDS011;1228;51.022;6.764;2023-05-29T07:25:02;20.02;;;4.88;;
2434;SDS011;1228;51.022;6.764;2023-05-29T07:27:28;6.85;;;4.55;;
2434;SDS011;1228;51.022;6.764;2023-05-29T07:29:54;9.73;;;5.07;;
2434;SDS011;1228;51.022;6.764;2023-05-29T07:32:20;10.23;;;6.38;;
2434;SDS011;1228;51.022;6.764;2023-05-29T07:34:46;63.55;;;9.57;;
2434;SDS011;1228;51.022;6.764;2023-05-29T07:37:14;7.30;;;4.93;;
2434;SDS011;1228;51.022;6.764;2023-05-29T07:39:40;8.27;;;4.35;;
2434;SDS011;1228;51.022;6.764;2023-05-29T07:42:06;7.13;;;4.80;;
2434;SDS011;1228;51.022;6.764;2023-05-29T07:44:31;6.93;;;4.20;;
2434;SDS011;1228;51.022;6.764;2023-05-29T07:46:57;6.85;;;4.25;;
2434;SDS011;1228;51.022;6.764;2023-05-29T07:49:23;8.93;;;5.05;;
2434;SDS011;1228;51.022;6.764;2023-05-29T07:51:48;6.88;;;4.90;;
2434;SDS011;1228;51.022;6.764;2023-05-29T07:54:14;10.27;;;4.43;;
2434;SDS011;1228;51.022;6.764;2023-05-29T07:56:43;8.80;;;4.20;;
2434;SDS011;1228;51.022;6.764;2023-05-29T07:59:09;6.55;;;4.55;;
2434;SDS011;1228;51.022;6.764;2023-05-29T08:01:35;6.25;;;4.53;;
2434;SDS011;1228;51.022;6.764;2023-05-29T08:04:02;8.20;;;4.00;;
2434;SDS011;1228;51.022;6.764;2023-05-29T08:06:27;10.00;;;4.75;;
2434;SDS011;1228;51.022;6.764;2023-05-29T08:08:53;8.90;;;4.90;;
2434;SDS011;1228;51.022;6.764;2023-05-29T08:11:22;6.53;;;4.18;;
2434;SDS011;1228;51.022;6.764;2023-05-29T08:13:47;8.57;;;4.30;;
2434;SDS011;1228;51.022;6.764;2023-05-29T08:16:13;5.43;;;4.47;;
2434;SDS011;1228;51.022;6.764;2023-05-29T08:18:40;7.72;;;4.03;;
2434;SDS011;1228;51.022;6.764;2023-05-29T08:21:06;8.55;;;4.28;;
2434;SDS011;1228;51.022;6.764;2023-05-29T08:23:32;10.00;;;4.78;;
2434;SDS011;1228;51.022;6.764;2023-05-29T08:25:57;9.70;;;4.85;;
2434;SDS011;1228;51.022;6.764;2023-05-29T08:28:23;6.55;;;4.55;;
2434;SDS011;1228;51.022;6.764;2023-05-29T08:30:49;7.15;;;4.18;;
2434;SDS011;1228;51.022;6.764;2023-05-29T08:33:14;6.55;;;4.15;;
2434;SDS011;1228;51.022;6.764;2023-05-29T08:35:40;6.60;;;4.53;;
2434;SDS011;1228;51.022;6.764;2023-05-29T08:38:06;15.63;;;4.88;;
2434;SDS011;1228;51.022;6.764;2023-05-29T08:40:31;7.45;;;4.97;;
2434;SDS011;1228;51.022;6.764;2023-05-29T08:42:58;7.85;;;4.97;;
2434;SDS011;1228;51.022;6.764;2023-05-29T08:45:28;10.27;;;4.63;;
2434;SDS011;1228;51.022;6.764;2023-05-29T08:47:54;7.90;;;4.20;;
2434;SDS011;1228;51.022;6.764;2023-05-29T08:50:22;8.70;;;4.28;;
2434;SDS011;1228;51.022;6.764;2023-05-29T08:52:48;7.43;;;4.93;;
2434;SDS011;1228;51.022;6.764;2023-05-29T08:55:15;7.68;;;5.05;;
2434;SDS011;1228;51.022;6.764;2023-05-29T08:57:41;10.68;;;4.30;;
2434;SDS011;1228;51.022;6.764;2023-05-29T09:00:08;6.85;;;4.47;;
2434;SDS011;1228;51.022;6.764;2023-05-29T09:02:41;8.27;;;4.30;;
2434;SDS011;1228;51.022;6.764;2023-05-29T09:05:08;8.95;;;4.47;;
2434;SDS011;1228;51.022;6.764;2023-05-29T09:07:35;6.18;;;3.80;;
2434;SDS011;1228;51.022;6.764;2023-05-29T09:10:13;4.97;;;3.67;;
2434;SDS011;1228;51.022;6.764;2023-05-29T09:12:40;13.27;;;4.63;;
2434;SDS011;1228;51.022;6.764;2023-05-29T09:15:08;7.70;;;4.65;;
2434;SDS011;1228;51.022;6.764;2023-05-29T09:17:55;11.55;;;4.60;;
2434;SDS011;1228;51.022;6.764;2023-05-29T09:20:25;8.55;;;4.93;;
2434;SDS011;1228;51.022;6.764;2023-05-29T09:22:54;11.25;;;4.68;;
2434;SDS011;1228;51.022;6.764;2023-05-29T09:25:26;11.70;;;3.75;;
2434;SDS011;1228;51.022;6.764;2023-05-29T09:28:01;4.85;;;3.83;;
2434;SDS011;1228;51.022;6.764;2023-05-29T09:30:31;6.68;;;3.65;;
2434;SDS011;1228;51.022;6.764;2023-05-29T09:33:16;6.78;;;4.03;;
2434;SDS011;1228;51.022;6.764;2023-05-29T09:35:43;30.70;;;4.85;;
2434;SDS011;1228;51.022;6.764;2023-05-29T09:38:11;8.13;;;4.65;;
2434;SDS011;1228;51.022;6.764;2023-05-29T09:40:39;10.18;;;5.30;;
2434;SDS011;1228;51.022;6.764;2023-05-29T09:43:08;15.07;;;4.43;;
2434;SDS011;1228;51.022;6.764;2023-05-29T09:45:42;9.05;;;4.40;;
2434;SDS011;1228;51.022;6.764;2023-05-29T09:48:12;11.25;;;4.30;;
2434;SDS011;1228;51.022;6.764;2023-05-29T09:50:48;9.85;;;4.55;;
2434;SDS011;1228;51.022;6.764;2023-05-29T09:55:46;6.63;;;5.28;;
2434;SDS011;1228;51.022;6.764;2023-05-29T09:58:13;9.88;;;5.65;;
2434;SDS011;1228;51.022;6.764;2023-05-29T10:00:41;12.95;;;5.70;;
2434;SDS011;1228;51.022;6.764;2023-05-29T10:03:07;8.98;;;5.40;;
2434;SDS011;1228;51.022;6.764;2023-05-29T10:05:32;6.10;;;4.72;;
2434;SDS011;1228;51.022;6.764;2023-05-29T10:07:58;5.43;;;4.80;;
2434;SDS011;1228;51.022;6.764;2023-05-29T10:10:27;5.35;;;4.28;;
2434;SDS011;1228;51.022;6.764;2023-05-29T10:12:53;12.77;;;5.22;;
2434;SDS011;1228;51.022;6.764;2023-05-29T10:15:20;7.20;;;4.80;;
2434;SDS011;1228;51.022;6.764;2023-05-29T10:21:03;8.77;;;5.60;;
2434;SDS011;1228;51.022;6.764;2023-05-29T10:23:31;9.85;;;5.43;;
2434;SDS011;1228;51.022;6.764;2023-05-29T10:26:41;11.23;;;5.75;;
2434;SDS011;1228;51.022;6.764;2023-05-29T10:31:45;7.03;;;4.90;;
2434;SDS011;1228;51.022;6.764;2023-05-29T10:34:37;7.50;;;4.45;;
2434;SDS011;1228;51.022;6.764;2023-05-29T10:39:43;7.93;;;5.65;;
2434;SDS011;1228;51.022;6.764;2023-05-29T10:45:05;9.10;;;4.63;;
2434;SDS011;1228;51.022;6.764;2023-05-29T10:47:31;9.52;;;4.78;;
2434;SDS011;1228;51.022;6.764;2023-05-29T10:50:00;10.25;;;4.43;;
2434;SDS011;1228;51.022;6.764;2023-05-29T10:52:30;9.90;;;5.60;;
2434;SDS011;1228;51.022;6.764;2023-05-29T10:55:00;8.32;;;6.20;;
2434;SDS011;1228;51.022;6.764;2023-05-29T10:57:29;6.68;;;4.53;;
2434;SDS011;1228;51.022;6.764;2023-05-29T10:59:59;6.70;;;4.18;;
2434;SDS011;1228;51.022;6.764;2023-05-29T11:02:29;8.10;;;4.63;;
2434;SDS011;1228;51.022;6.764;2023-05-29T11:05:05;7.82;;;4.90;;
2434;SDS011;1228;51.022;6.764;2023-05-29T11:07:59;8.25;;;4.25;;
2434;SDS011;1228;51.022;6.764;2023-05-29T11:10:43;7.55;;;4.68;;
2434;SDS011;1228;51.022;6.764;2023-05-29T11:16:04;8.27;;;4.32;;
2434;SDS011;1228;51.022;6.764;2023-05-29T11:19:05;6.43;;;3.97;;
2434;SDS011;1228;51.022;6.764;2023-05-29T11:24:26;8.73;;;4.28;;
2434;SDS011;1228;51.022;6.764;2023-05-29T11:26:53;9.63;;;4.30;;
2434;SDS011;1228;51.022;6.764;2023-05-29T11:29:23;6.95;;;4.20;;
2434;SDS011;1228;51.022;6.764;2023-05-29T11:31:57;7.13;;;4.13;;
2434;SDS011;1228;51.022;6.764;2023-05-29T11:34:27;6.40;;;4.15;;
2434;SDS011;1228;51.022;6.764;2023-05-29T11:36:54;9.80;;;4.43;;
2434;SDS011;1228;51.022;6.764;2023-05-29T11:39:25;10.70;;;4.50;;
2434;SDS011;1228;51.022;6.764;2023-05-29T11:41:51;10.65;;;5.32;;
2434;SDS011;1228;51.022;6.764;2023-05-29T11:44:20;4.97;;;4.35;;
2434;SDS011;1228;51.022;6.764;2023-05-29T11:46:58;6.70;;;4.75;;
2434;SDS011;1228;51.022;6.764;2023-05-29T11:49:31;6.90;;;4.55;;
2434;SDS011;1228;51.022;6.764;2023-05-29T11:52:05;9.02;;;4.30;;
2434;SDS011;1228;51.022;6.764;2023-05-29T11:54:32;8.30;;;4.37;;
2434;SDS011;1228;51.022;6.764;2023-05-29T11:56:59;6.90;;;4.47;;
2434;SDS011;1228;51.022;6.764;2023-05-29T11:59:29;7.57;;;3.95;;
2434;SDS011;1228;51.022;6.764;2023-05-29T12:01:55;5.18;;;4.35;;
2434;SDS011;1228;51.022;6.764;2023-05-29T12:04:21;7.93;;;4.18;;
2434;SDS011;1228;51.022;6.764;2023-05-29T12:06:47;10.55;;;4.03;;
2434;SDS011;1228;51.022;6.764;2023-05-29T12:09:28;8.05;;;4.10;;
2434;SDS011;1228;51.022;6.764;2023-05-29T12:12:01;8.95;;;4.68;;
2434;SDS011;1228;51.022;6.764;2023-05-29T12:14:27;7.72;;;3.92;;
2434;SDS011;1228;51.022;6.764;2023-05-29T12:16:53;9.45;;;3.80;;
2434;SDS011;1228;51.022;6.764;2023-05-29T12:19:19;7.53;;;5.00;;
2434;SDS011;1228;51.022;6.764;2023-05-29T12:21:44;10.65;;;4.00;;
2434;SDS011;1228;51.022;6.764;2023-05-29T12:24:10;7.43;;;4.13;;
2434;SDS011;1228;51.022;6.764;2023-05-29T12:26:36;7.85;;;5.75;;
2434;SDS011;1228;51.022;6.764;2023-05-29T12:29:05;8.05;;;6.20;;
2434;SDS011;1228;51.022;6.764;2023-05-29T12:31:31;8.82;;;5.20;;
2434;SDS011;1228;51.022;6.764;2023-05-29T12:34:00;6.78;;;4.30;;
2434;SDS011;1228;51.022;6.764;2023-05-29T12:36:32;5.93;;;5.05;;
2434;SDS011;1228;51.022;6.764;2023-05-29T12:38:58;8.15;;;4.55;;
2434;SDS011;1228;51.022;6.764;2023-05-29T12:41:24;5.85;;;4.68;;
2434;SDS011;1228;51.022;6.764;2023-05-29T12:43:52;5.47;;;4.50;;
2434;SDS011;1228;51.022;6.764;2023-05-29T12:46:22;6.30;;;4.22;;
2434;SDS011;1228;51.022;6.764;2023-05-29T12:48:48;7.45;;;4.80;;
2434;SDS011;1228;51.022;6.764;2023-05-29T12:51:14;6.22;;;4.25;;
2434;SDS011;1228;51.022;6.764;2023-05-29T12:53:43;8.02;;;4.32;;
2434;SDS011;1228;51.022;6.764;2023-05-29T12:56:08;10.20;;;4.70;;
2434;SDS011;1228;51.022;6.764;2023-05-29T12:58:34;7.60;;;4.32;;
2434;SDS011;1228;51.022;6.764;2023-05-29T13:01:00;9.98;;;4.22;;
2434;SDS011;1228;51.022;6.764;2023-05-29T13:03:25;7.25;;;4.53;;
2434;SDS011;1228;51.022;6.764;2023-05-29T13:05:51;7.30;;;4.05;;
2434;SDS011;1228;51.022;6.764;2023-05-29T13:08:18;5.78;;;4.20;;
2434;SDS011;1228;51.022;6.764;2023-05-29T13:10:45;11.43;;;4.22;;
2434;SDS011;1228;51.022;6.764;2023-05-29T13:13:10;8.63;;;4.18;;
2434;SDS011;1228;51.022;6.764;2023-05-29T13:15:37;7.35;;;4.45;;
2434;SDS011;1228;51.022;6.764;2023-05-29T13:18:05;6.78;;;3.90;;
2434;SDS011;1228;51.022;6.764;2023-05-29T13:20:31;7.65;;;4.53;;
2434;SDS011;1228;51.022;6.764;2023-05-29T13:22:57;7.75;;;4.90;;
2434;SDS011;1228;51.022;6.764;2023-05-29T13:25:23;7.05;;;4.72;;
2434;SDS011;1228;51.022;6.764;2023-05-29T13:27:50;7.32;;;4.55;;
2434;SDS011;1228;51.022;6.764;2023-05-29T13:30:16;7.80;;;4.55;;
2434;SDS011;1228;51.022;6.764;2023-05-29T13:32:42;6.53;;;4.97;;
2434;SDS011;1228;51.022;6.764;2023-05-29T13:35:08;8.90;;;4.18;;
2434;SDS011;1228;51.022;6.764;2023-05-29T13:37:35;5.03;;;4.43;;
2434;SDS011;1228;51.022;6.764;2023-05-29T13:40:02;6.80;;;4.18;;
2434;SDS011;1228;51.022;6.764;2023-05-29T13:42:28;8.95;;;4.20;;
2434;SDS011;1228;51.022;6.764;2023-05-29T13:44:54;5.80;;;4.25;;
2434;SDS011;1228;51.022;6.764;2023-05-29T13:47:20;7.18;;;4.40;;
2434;SDS011;1228;51.022;6.764;2023-05-29T13:49:45;7.07;;;4.18;;
2434;SDS011;1228;51.022;6.764;2023-05-29T13:52:11;8.00;;;4.32;;
2434;SDS011;1228;51.022;6.764;2023-05-29T13:54:37;7.38;;;3.90;;
2434;SDS011;1228;51.022;6.764;2023-05-29T13:57:03;7.30;;;4.40;;
2434;SDS011;1228;51.022;6.764;2023-05-29T13:59:31;8.30;;;4.35;;
2434;SDS011;1228;51.022;6.764;2023-05-29T14:02:00;8.10;;;4.75;;
2434;SDS011;1228;51.022;6.764;2023-05-29T14:04:28;7.60;;;4.72;;
2434;SDS011;1228;51.022;6.764;2023-05-29T14:06:55;7.43;;;4.68;;
2434;SDS011;1228;51.022;6.764;2023-05-29T14:09:24;6.72;;;4.53;;
2434;SDS011;1228;51.022;6.764;2023-05-29T14:11:56;7.10;;;4.55;;
2434;SDS011;1228;51.022;6.764;2023-05-29T14:14:25;4.57;;;3.47;;
2434;SDS011;1228;51.022;6.764;2023-05-29T14:16:51;8.65;;;4.78;;
2434;SDS011;1228;51.022;6.764;2023-05-29T14:19:18;5.78;;;3.88;;
2434;SDS011;1228;51.022;6.764;2023-05-29T14:21:44;4.07;;;3.63;;
2434;SDS011;1228;51.022;6.764;2023-05-29T14:24:10;6.15;;;3.97;;
2434;SDS011;1228;51.022;6.764;2023-05-29T14:26:35;5.60;;;4.07;;
2434;SDS011;1228;51.022;6.764;2023-05-29T14:29:02;5.82;;;4.45;;
2434;SDS011;1228;51.022;6.764;2023-05-29T14:31:28;6.32;;;4.35;;
2434;SDS011;1228;51.022;6.764;2023-05-29T14:33:53;6.35;;;4.05;;
2434;SDS011;1228;51.022;6.764;2023-05-29T14:36:19;5.75;;;4.45;;
2434;SDS011;1228;51.022;6.764;2023-05-29T14:38:45;8.45;;;4.53;;
2434;SDS011;1228;51.022;6.764;2023-05-29T14:41:11;7.63;;;4.32;;
2434;SDS011;1228;51.022;6.764;2023-05-29T14:43:41;8.23;;;4.50;;
2434;SDS011;1228;51.022;6.764;2023-05-29T14:46:07;5.53;;;4.18;;
2434;SDS011;1228;51.022;6.764;2023-05-29T14:48:33;9.32;;;4.50;;
2434;SDS011;1228;51.022;6.764;2023-05-29T14:50:58;8.82;;;5.07;;
2434;SDS011;1228;51.022;6.764;2023-05-29T14:53:24;6.60;;;4.65;;
2434;SDS011;1228;51.022;6.764;2023-05-29T14:55:50;6.38;;;5.55;;
2434;SDS011;1228;51.022;6.764;2023-05-29T14:58:15;6.25;;;5.00;;
2434;SDS011;1228;51.022;6.764;2023-05-29T15:00:41;6.85;;;5.60;;
2434;SDS011;1228;51.022;6.764;2023-05-29T15:03:06;4.75;;;3.95;;
2434;SDS011;1228;51.022;6.764;2023-05-29T15:05:32;6.55;;;5.30;;
2434;SDS011;1228;51.022;6.764;2023-05-29T15:07:57;6.55;;;5.20;;
2434;SDS011;1228;51.022;6.764;2023-05-29T15:10:24;5.03;;;4.53;;
2434;SDS011;1228;51.022;6.764;2023-05-29T15:12:53;5.75;;;5.03;;
2434;SDS011;1228;51.022;6.764;2023-05-29T15:15:28;11.05;;;6.18;;
2434;SDS011;1228;51.022;6.764;2023-05-29T15:17:54;7.60;;;4.82;;
2434;SDS011;1228;51.022;6.764;2023-05-29T15:20:23;6.60;;;4.50;;
2434;SDS011;1228;51.022;6.764;2023-05-29T15:22:50;8.95;;;4.32;;
2434;SDS011;1228;51.022;6.764;2023-05-29T15:25:16;5.88;;;4.53;;
2434;SDS011;1228;51.022;6.764;2023-05-29T15:27:42;9.70;;;5.53;;
2434;SDS011;1228;51.022;6.764;2023-05-29T15:30:18;7.20;;;4.88;;
2434;SDS011;1228;51.022;6.764;2023-05-29T15:32:44;7.20;;;4.57;;
2434;SDS011;1228;51.022;6.764;2023-05-29T15:35:11;6.03;;;4.32;;
2434;SDS011;1228;51.022;6.764;2023-05-29T15:37:40;9.27;;;4.95;;
2434;SDS011;1228;51.022;6.764;2023-05-29T15:40:07;6.70;;;4.78;;
2434;SDS011;1228;51.022;6.764;2023-05-29T15:42:34;5.95;;;5.18;;
2434;SDS011;1228;51.022;6.764;2023-05-29T15:45:01;8.85;;;5.40;;
2434;SDS011;1228;51.022;6.764;2023-05-29T15:47:28;6.63;;;4.55;;